LIPE Airport Information

Runway Information
Runway 12 Length 9186 ft width 150 ft
Elevation 120 ft Threshold 1007 ft Heading 117
Runway 30 Length 9186 ft Width 150 ft
Elevation 120 ft Threshold 1188 ft Heading 297
Airport Frequencies
Type APP Name APP Frequency 120.1 MHZ
Type ATIS Name ATIS Frequency 134.875 MHZ
Type GND Name GND Frequency 129.925 MHZ
Type TWR Name TWR Frequency 120.8 MHZ
Airport Navaids
Type VOR-DME Name Bologna Frequency 112200 KHZ
Type NDB Name Bologna Frequency 413 KHZ
Airport Weather Information & NOTAM
ADDS - METARS form results

(1909 UTC 25 June 2018)
 
METAR text: LIPE 251850Z 06005KT CAVOK 21/12 Q1019
Conditions at: LIPE (BOLOGNA/BORGO (A, IT) observed 1850 UTC 25 June 2018
Temperature: 21.0°C (70°F)
Dewpoint: 12.0°C (54°F) [RH = 56%]
Pressure (altimeter): 30.09 inches Hg (1019.0 mb)
Winds: from the ENE (60 degrees) at 6 MPH (5 knots; 2.6 m/s)
Visibility: 6 or more miles (10+ km)
Ceiling: ceiling and visibility are OK
Clouds: unknown
Weather: no significant weather observed at this time

METAR text: LIPE 251820Z 05006KT CAVOK 22/12 Q1018
Conditions at: LIPE (BOLOGNA/BORGO (A, IT) observed 1820 UTC 25 June 2018
Temperature: 22.0°C (72°F)
Dewpoint: 12.0°C (54°F) [RH = 53%]
Pressure (altimeter): 30.06 inches Hg (1018.0 mb)
Winds: from the NE (50 degrees) at 7 MPH (6 knots; 3.1 m/s)
Visibility: 6 or more miles (10+ km)
Ceiling: ceiling and visibility are OK
Clouds: unknown
Weather: no significant weather observed at this time